createdAt,value
2018-06-18T00:00:40.459Z,115.37
2018-06-18T00:03:11.879Z,117.82
2018-06-18T00:05:43.174Z,117.97
2018-06-18T00:08:14.732Z,114.22
2018-06-18T00:10:45.839Z,117.20
2018-06-18T00:13:17.495Z,115.50
2018-06-18T00:15:48.754Z,112.97
2018-06-18T00:18:20.201Z,114.40
2018-06-18T00:20:51.849Z,114.77
2018-06-18T00:23:23.542Z,117.03
2018-06-18T00:25:54.832Z,117.40
2018-06-18T00:28:26.069Z,114.55
2018-06-18T00:30:57.471Z,117.70
2018-06-18T00:33:28.960Z,120.17
2018-06-18T00:36:00.035Z,116.55
2018-06-18T00:38:31.309Z,115.77
2018-06-18T00:41:02.761Z,116.75
2018-06-18T00:43:34.201Z,118.25
2018-06-18T00:46:05.690Z,115.32
2018-06-18T00:48:37.019Z,117.28
2018-06-18T00:51:08.260Z,115.40
2018-06-18T00:53:39.403Z,113.65
2018-06-18T00:56:12.986Z,113.80
2018-06-18T00:58:44.310Z,119.53
2018-06-18T01:01:15.573Z,117.70
2018-06-18T01:03:47.042Z,116.80
2018-06-18T01:06:18.287Z,115.95
2018-06-18T01:08:49.787Z,118.05
2018-06-18T01:11:21.019Z,114.70
2018-06-18T01:13:52.309Z,114.70
2018-06-18T01:16:23.511Z,118.85
2018-06-18T01:18:55.644Z,116.60
2018-06-18T01:21:26.821Z,116.85
2018-06-18T01:25:05.483Z,115.10
2018-06-18T01:27:36.619Z,119.17
2018-06-18T01:30:08.151Z,118.35
2018-06-18T01:32:39.556Z,124.02
2018-06-18T01:35:10.969Z,113.40
2018-06-18T01:37:42.030Z,114.85
2018-06-18T01:40:13.373Z,115.25
2018-06-18T01:42:44.639Z,118.67
2018-06-18T01:45:16.067Z,117.20
2018-06-18T01:47:47.105Z,113.28
2018-06-18T01:50:18.349Z,115.47
2018-06-18T01:52:49.580Z,120.35
2018-06-18T01:55:21.094Z,117.40
2018-06-18T01:57:52.106Z,117.67
2018-06-18T02:00:23.798Z,117.22
2018-06-18T02:02:55.067Z,121.70
2018-06-18T02:05:26.267Z,117.13
2018-06-18T02:07:57.552Z,122.98
2018-06-18T02:10:29.384Z,117.70
2018-06-18T02:13:00.919Z,121.35
2018-06-18T02:15:33.472Z,121.40
2018-06-18T02:18:04.856Z,115.52
2018-06-18T02:20:36.975Z,121.77
2018-06-18T02:23:08.332Z,122.67
2018-06-18T02:25:39.662Z,118.20
2018-06-18T02:28:15.541Z,117.75
2018-06-18T02:30:52.495Z,117.65
2018-06-18T02:33:28.515Z,119.85
2018-06-18T02:36:04.846Z,120.80
2018-06-18T02:38:41.127Z,122.00
2018-06-18T02:41:12.386Z,120.50
2018-06-18T02:43:43.663Z,114.80
2018-06-18T02:46:14.903Z,124.40
2018-06-18T02:48:46.093Z,122.02
2018-06-18T02:51:17.557Z,120.85
2018-06-18T02:53:48.769Z,119.45
2018-06-18T02:56:22.959Z,118.55
2018-06-18T02:58:54.037Z,119.13
2018-06-18T03:01:25.213Z,117.53
2018-06-18T03:03:56.393Z,117.80
2018-06-18T03:06:28.371Z,119.15
2018-06-18T03:08:59.603Z,120.80
2018-06-18T03:11:31.081Z,115.90
2018-06-18T03:14:02.262Z,117.10
2018-06-18T03:16:34.384Z,118.62
2018-06-18T03:19:11.156Z,120.85
2018-06-18T03:21:47.331Z,115.00
2018-06-18T03:24:23.389Z,118.50
2018-06-18T03:26:59.666Z,113.20
2018-06-18T03:29:33.054Z,117.65
2018-06-18T03:32:09.874Z,119.05
2018-06-18T03:34:41.320Z,119.30
2018-06-18T03:37:14.945Z,126.72
2018-06-18T03:39:46.149Z,122.15
2018-06-18T03:42:17.432Z,123.20
2018-06-18T03:45:52.149Z,115.47
2018-06-18T03:48:23.699Z,116.47
2018-06-18T03:50:54.937Z,116.53
2018-06-18T03:53:26.262Z,117.13
2018-06-18T03:56:00.002Z,120.85
2018-06-18T03:58:32.149Z,118.90
2018-06-18T04:01:19.065Z,119.62
2018-06-18T04:03:56.092Z,117.53
2018-06-18T04:06:32.485Z,118.95
2018-06-18T04:09:09.116Z,122.17
2018-06-18T04:11:45.246Z,117.05
2018-06-18T04:14:17.011Z,116.62
2018-06-18T04:16:48.178Z,119.50
2018-06-18T04:19:19.409Z,117.42
2018-06-18T04:21:51.744Z,120.85
2018-06-18T04:24:24.460Z,115.80
2018-06-18T04:26:56.243Z,121.72
2018-06-18T04:29:27.800Z,119.72
2018-06-18T04:31:58.916Z,116.47
2018-06-18T04:34:37.107Z,115.22
2018-06-18T04:37:09.181Z,114.67
2018-06-18T04:39:40.428Z,119.45
2018-06-18T04:42:16.590Z,120.13
2018-06-18T04:44:52.798Z,124.05
2018-06-18T04:47:28.976Z,119.57
2018-06-18T04:50:05.903Z,119.42
2018-06-18T04:52:37.096Z,124.72
2018-06-18T04:55:08.878Z,123.00
2018-06-18T04:57:40.050Z,122.72
2018-06-18T05:00:23.850Z,123.40
2018-06-18T05:02:55.237Z,124.78
2018-06-18T05:05:26.345Z,119.82
2018-06-18T05:08:06.305Z,124.62
2018-06-18T05:10:37.539Z,124.07
2018-06-18T05:13:08.771Z,125.47
2018-06-18T05:15:41.454Z,121.97
2018-06-18T05:18:12.519Z,124.90
2018-06-18T05:20:43.873Z,126.45
2018-06-18T05:23:18.561Z,124.62
2018-06-18T05:25:54.470Z,123.87
2018-06-18T05:28:27.866Z,131.47
2018-06-18T05:30:59.856Z,125.53
2018-06-18T05:33:31.077Z,129.38
2018-06-18T05:36:02.478Z,128.95
2018-06-18T05:38:35.782Z,135.70
2018-06-18T05:41:07.032Z,129.03
2018-06-18T05:43:40.392Z,128.27
2018-06-18T05:46:12.151Z,125.87
2018-06-18T05:48:43.604Z,130.60
2018-06-18T05:51:31.897Z,131.97
2018-06-18T05:54:03.210Z,132.72
2018-06-18T05:56:35.198Z,131.05
2018-06-18T05:59:08.907Z,132.70
2018-06-18T06:01:42.398Z,129.00
2018-06-18T06:04:13.977Z,129.50
2018-06-18T06:06:45.190Z,130.90
2018-06-18T06:09:16.823Z,131.35
2018-06-18T06:11:48.153Z,127.58
2018-06-18T06:14:19.649Z,127.62
2018-06-18T06:16:52.532Z,131.82
2018-06-18T06:19:24.433Z,130.80
2018-06-18T06:21:55.490Z,128.02
2018-06-18T06:24:26.821Z,127.35
2018-06-18T06:26:58.013Z,123.40
2018-06-18T06:29:29.286Z,128.38
2018-06-18T06:32:00.427Z,124.12
2018-06-18T06:34:31.841Z,125.62
2018-06-18T06:37:03.214Z,128.90
2018-06-18T06:39:35.350Z,134.22
2018-06-18T06:42:12.471Z,130.85
2018-06-18T06:44:43.603Z,131.43
2018-06-18T06:47:14.925Z,128.62
2018-06-18T06:49:47.282Z,124.12
2018-06-18T06:52:18.786Z,128.25
2018-06-18T06:54:51.449Z,127.82
2018-06-18T06:57:23.006Z,122.50
2018-06-18T06:59:54.263Z,126.30
2018-06-18T07:02:25.487Z,128.70
2018-06-18T07:04:57.069Z,131.18
2018-06-18T07:07:28.108Z,126.47
2018-06-18T07:09:59.281Z,126.22
2018-06-18T07:12:30.587Z,123.53
2018-06-18T07:15:01.743Z,128.97
2018-06-18T07:17:33.566Z,129.15
2018-06-18T07:20:04.897Z,129.87
2018-06-18T07:22:36.239Z,121.10
2018-06-18T07:25:07.421Z,121.02
2018-06-18T07:27:38.725Z,127.20
2018-06-18T07:30:10.292Z,127.97
2018-06-18T07:32:41.399Z,121.42
2018-06-18T07:35:12.486Z,121.70
2018-06-18T07:37:43.645Z,123.87
2018-06-18T07:40:15.202Z,130.57
2018-06-18T07:42:46.583Z,129.12
2018-06-18T07:45:23.164Z,121.45
2018-06-18T07:47:54.708Z,120.17
2018-06-18T07:50:26.395Z,122.82
2018-06-18T07:52:57.387Z,122.37
2018-06-18T07:55:29.454Z,127.65
2018-06-18T07:58:01.056Z,125.97
2018-06-18T08:00:32.194Z,126.35
2018-06-18T08:03:03.565Z,122.85
2018-06-18T08:05:34.822Z,121.35
2018-06-18T08:08:06.079Z,122.13
2018-06-18T08:10:37.254Z,127.87
2018-06-18T08:13:08.541Z,123.75
2018-06-18T08:15:41.284Z,121.92
2018-06-18T08:18:13.340Z,123.67
2018-06-18T08:20:44.718Z,124.18
2018-06-18T08:23:15.740Z,126.25
2018-06-18T08:25:47.595Z,122.62
2018-06-18T08:28:19.356Z,119.08
2018-06-18T08:30:52.919Z,122.42
2018-06-18T08:33:24.480Z,123.82
2018-06-18T08:35:55.855Z,123.92
2018-06-18T08:38:27.961Z,127.85
2018-06-18T08:40:59.413Z,127.27
2018-06-18T08:43:30.891Z,126.97
2018-06-18T08:46:02.105Z,128.27
2018-06-18T08:48:38.248Z,133.30
2018-06-18T08:51:15.058Z,122.50
2018-06-18T08:53:51.701Z,125.90
2018-06-18T08:57:29.116Z,123.38
2018-06-18T09:00:05.397Z,123.60
2018-06-18T09:02:36.640Z,121.07
2018-06-18T09:05:12.347Z,124.72
2018-06-18T09:07:48.675Z,120.95
2018-06-18T09:10:20.244Z,116.22
2018-06-18T09:12:51.485Z,121.13
2018-06-18T09:15:23.905Z,122.35
2018-06-18T09:17:56.468Z,118.02
2018-06-18T09:20:27.660Z,121.67
2018-06-18T09:22:58.822Z,123.87
2018-06-18T09:25:30.447Z,118.25
2018-06-18T09:28:01.918Z,126.62
2018-06-18T09:30:34.735Z,126.27
2018-06-18T09:33:06.026Z,126.45
2018-06-18T09:35:37.392Z,126.27
2018-06-18T09:38:09.865Z,131.55
2018-06-18T09:40:50.130Z,125.55
2018-06-18T09:43:24.448Z,128.07
2018-06-18T09:46:00.511Z,131.57
2018-06-18T09:50:50.818Z,127.02
2018-06-18T09:53:26.862Z,129.35
2018-06-18T09:56:02.907Z,130.10
2018-06-18T09:59:37.715Z,119.90
2018-06-18T10:02:09.792Z,124.97
2018-06-18T10:04:40.916Z,123.92
2018-06-18T10:07:13.235Z,123.05
2018-06-18T10:09:44.428Z,126.87
2018-06-18T10:12:15.795Z,128.40
2018-06-18T10:14:47.138Z,127.42
2018-06-18T10:17:19.130Z,134.25
2018-06-18T10:19:51.742Z,131.57
2018-06-18T10:22:23.570Z,125.00
2018-06-18T10:24:55.387Z,124.65
2018-06-18T10:27:27.702Z,127.92
2018-06-18T10:29:59.874Z,127.22
2018-06-18T10:32:36.137Z,118.37
2018-06-18T10:36:13.294Z,126.55
2018-06-18T10:38:49.501Z,126.30
2018-06-18T10:41:26.127Z,129.57
2018-06-18T10:43:57.486Z,124.38
2018-06-18T10:46:29.471Z,123.35
2018-06-18T10:49:00.931Z,126.10
2018-06-18T10:51:33.513Z,122.65
2018-06-18T10:54:05.997Z,131.03
2018-06-18T10:56:37.995Z,127.53
2018-06-18T10:59:09.186Z,122.60
2018-06-18T11:01:43.137Z,124.45
2018-06-18T11:04:34.752Z,127.45
2018-06-18T11:07:07.574Z,128.02
2018-06-18T11:09:38.664Z,128.27
2018-06-18T11:12:09.833Z,125.07
2018-06-18T11:14:41.659Z,121.67
2018-06-18T11:17:18.768Z,125.70
2018-06-18T11:19:55.570Z,122.92
2018-06-18T11:22:38.516Z,128.40
2018-06-18T11:25:25.497Z,126.47
2018-06-18T11:27:59.906Z,128.18
2018-06-18T11:30:33.177Z,130.43
2018-06-18T11:33:06.436Z,133.00
2018-06-18T11:35:37.571Z,126.60
2018-06-18T11:38:10.347Z,127.60
2018-06-18T11:40:41.988Z,123.95
2018-06-18T11:43:16.262Z,121.50
2018-06-18T11:45:48.626Z,124.35
2018-06-18T11:48:22.180Z,122.05
2018-06-18T11:50:53.626Z,125.40
2018-06-18T11:53:25.015Z,121.20
2018-06-18T11:55:56.535Z,129.35
2018-06-18T11:59:33.479Z,126.78
2018-06-18T12:02:09.569Z,122.13
2018-06-18T12:04:45.818Z,122.75
2018-06-18T12:07:22.512Z,123.13
2018-06-18T12:09:54.363Z,128.05
2018-06-18T12:12:26.146Z,122.55
2018-06-18T12:14:57.323Z,119.47
2018-06-18T12:17:28.452Z,120.17
2018-06-18T12:19:59.778Z,116.85
2018-06-18T12:22:30.866Z,123.18
2018-06-18T12:25:02.249Z,120.85
2018-06-18T12:27:35.435Z,124.40
2018-06-18T12:30:06.770Z,119.35
2018-06-18T12:32:37.882Z,120.95
2018-06-18T12:35:09.171Z,121.57
2018-06-18T12:37:41.223Z,124.50
2018-06-18T12:40:12.367Z,123.10
2018-06-18T12:42:43.621Z,120.67
2018-06-18T12:45:22.343Z,119.15
2018-06-18T12:47:59.229Z,122.25
2018-06-18T12:50:36.216Z,126.53
2018-06-18T12:53:12.192Z,122.60
2018-06-18T12:55:48.537Z,125.78
2018-06-18T12:58:19.558Z,119.35
2018-06-18T13:00:51.154Z,122.05
2018-06-18T13:03:22.739Z,120.92
2018-06-18T13:05:54.076Z,121.20
2018-06-18T13:08:25.254Z,122.70
2018-06-18T13:10:56.431Z,122.78
2018-06-18T13:13:27.783Z,120.30
2018-06-18T13:15:58.920Z,121.22
2018-06-18T13:18:30.072Z,124.42
2018-06-18T13:21:01.348Z,125.47
2018-06-18T13:23:32.712Z,126.87
2018-06-18T13:26:04.064Z,129.50
2018-06-18T13:28:36.142Z,124.18
2018-06-18T13:31:07.895Z,125.87
2018-06-18T13:33:39.481Z,129.78
2018-06-18T13:36:10.773Z,127.02
2018-06-18T13:38:49.726Z,131.32
2018-06-18T13:41:34.450Z,130.93
2018-06-18T13:48:39.674Z,133.78
2018-06-18T13:51:52.224Z,129.20
2018-06-18T13:55:08.407Z,131.10
2018-06-18T13:57:43.612Z,127.75
2018-06-18T14:00:15.058Z,122.47
2018-06-18T14:02:46.128Z,127.80
2018-06-18T14:05:17.293Z,126.78
2018-06-18T14:07:48.502Z,127.20
2018-06-18T14:10:19.941Z,127.15
2018-06-18T14:12:51.092Z,123.82
2018-06-18T14:15:22.344Z,127.22
2018-06-18T14:17:53.377Z,130.60
2018-06-18T14:20:26.552Z,127.25
2018-06-18T14:22:57.486Z,126.75
2018-06-18T14:25:28.643Z,126.90
2018-06-18T14:27:59.793Z,126.25
2018-06-18T14:30:35.885Z,128.50
2018-06-18T14:33:12.029Z,127.95
2018-06-18T14:35:48.456Z,129.18
2018-06-18T14:38:24.495Z,127.15
2018-06-18T14:40:55.852Z,129.10
2018-06-18T14:43:27.775Z,126.20
2018-06-18T14:45:59.276Z,123.45
2018-06-18T14:48:33.036Z,126.05
2018-06-18T14:51:04.281Z,123.38
2018-06-18T14:53:35.610Z,127.55
2018-06-18T14:56:18.218Z,126.75
2018-06-18T14:59:13.494Z,128.27
2018-06-18T15:01:44.855Z,124.62
2018-06-18T15:04:15.989Z,126.58
2018-06-18T15:06:47.361Z,130.93
2018-06-18T15:09:20.228Z,134.70
2018-06-18T15:11:52.775Z,128.47
2018-06-18T15:14:23.873Z,131.47
2018-06-18T15:16:55.070Z,127.02
2018-06-18T15:19:28.444Z,123.58
2018-06-18T15:22:00.873Z,123.53
2018-06-18T15:24:40.757Z,128.95
2018-06-18T15:27:11.991Z,127.50
2018-06-18T15:29:42.953Z,130.30
2018-06-18T15:32:14.371Z,130.55
2018-06-18T15:34:45.637Z,129.03
2018-06-18T15:37:16.870Z,123.50
2018-06-18T15:39:48.136Z,129.42
2018-06-18T15:42:19.486Z,125.30
2018-06-18T15:44:50.545Z,123.30
2018-06-18T15:47:21.973Z,125.33
2018-06-18T15:49:53.145Z,125.27
2018-06-18T15:52:24.627Z,128.57
2018-06-18T15:54:55.810Z,132.52
2018-06-18T15:57:27.137Z,127.27
2018-06-18T15:59:58.311Z,130.70
2018-06-18T16:02:29.569Z,129.15
2018-06-18T16:05:00.683Z,127.35
2018-06-18T16:07:32.795Z,125.85
2018-06-18T16:10:04.481Z,125.20
2018-06-18T16:12:35.787Z,131.75
2018-06-18T16:15:07.254Z,130.25
2018-06-18T16:17:38.727Z,131.60
2018-06-18T16:20:09.880Z,134.90
2018-06-18T16:22:41.224Z,135.95
2018-06-18T16:25:13.888Z,129.87
2018-06-18T16:27:47.223Z,132.32
2018-06-18T16:30:22.700Z,128.50
2018-06-18T16:32:56.851Z,124.58
2018-06-18T16:35:32.819Z,130.20
2018-06-18T16:38:06.368Z,131.97
2018-06-18T16:40:40.500Z,128.07
2018-06-18T16:43:17.355Z,130.95
2018-06-18T16:45:49.897Z,130.47
2018-06-18T16:48:23.077Z,133.18
2018-06-18T16:50:57.089Z,130.15
2018-06-18T16:53:29.788Z,127.02
2018-06-18T16:56:00.964Z,131.57
2018-06-18T16:58:32.310Z,132.90
2018-06-18T17:01:03.363Z,131.60
2018-06-18T17:03:34.675Z,130.65
2018-06-18T17:06:07.832Z,129.78
2018-06-18T17:08:39.248Z,126.20
2018-06-18T17:11:10.401Z,126.10
2018-06-18T17:13:42.289Z,129.20
2018-06-18T17:16:14.370Z,125.62
2018-06-18T17:18:45.799Z,127.02
2018-06-18T17:21:19.111Z,125.80
2018-06-18T17:23:50.882Z,126.02
2018-06-18T17:26:22.248Z,119.75
2018-06-18T17:28:53.312Z,123.85
2018-06-18T17:31:25.508Z,125.80
2018-06-18T17:33:56.997Z,120.92
2018-06-18T17:36:28.422Z,118.42
2018-06-18T17:38:59.583Z,124.75
2018-06-18T17:41:30.962Z,124.67
2018-06-18T17:44:01.973Z,122.82
2018-06-18T17:46:33.471Z,127.20
2018-06-18T17:49:04.629Z,121.97
2018-06-18T17:51:36.416Z,124.53
2018-06-18T17:54:07.451Z,127.32
2018-06-18T17:56:38.613Z,122.60
2018-06-18T17:59:09.941Z,120.65
2018-06-18T18:01:41.190Z,123.10
2018-06-18T18:04:12.206Z,122.67
2018-06-18T18:06:44.077Z,120.92
2018-06-18T18:09:15.181Z,123.33
2018-06-18T18:11:46.370Z,123.80
2018-06-18T18:14:17.676Z,127.92
2018-06-18T18:17:00.085Z,136.03
2018-06-18T18:19:35.445Z,128.55
2018-06-18T18:22:07.719Z,124.53
2018-06-18T18:24:40.546Z,123.55
2018-06-18T18:27:12.453Z,121.45
2018-06-18T18:29:43.832Z,122.30
2018-06-18T18:32:16.387Z,126.85
2018-06-18T18:34:48.383Z,124.02
2018-06-18T18:37:19.713Z,119.87
2018-06-18T18:39:51.102Z,119.97
2018-06-18T18:42:23.379Z,122.62
2018-06-18T18:44:55.387Z,122.80
2018-06-18T18:47:28.033Z,125.65
2018-06-18T18:49:59.575Z,123.60
2018-06-18T18:52:30.965Z,125.12
2018-06-18T18:55:43.090Z,122.30
2018-06-18T18:58:25.290Z,123.58
2018-06-18T19:00:57.896Z,127.42
2018-06-18T19:03:30.340Z,119.80
2018-06-18T19:06:02.068Z,123.25
2018-06-18T19:08:33.926Z,123.65
2018-06-18T19:11:06.193Z,130.07
2018-06-18T19:13:38.643Z,131.93
2018-06-18T19:16:10.425Z,123.87
2018-06-18T19:18:45.815Z,125.87
2018-06-18T19:21:17.426Z,121.15
2018-06-18T19:23:49.498Z,125.72
2018-06-18T19:26:21.405Z,123.55
2018-06-18T19:28:53.542Z,126.78
2018-06-18T19:31:27.757Z,122.37
2018-06-18T19:34:09.350Z,123.40
2018-06-18T19:36:46.228Z,127.32
2018-06-18T19:39:18.421Z,129.53
2018-06-18T19:41:49.787Z,123.55
2018-06-18T19:44:21.111Z,122.50
2018-06-18T19:49:18.365Z,125.82
2018-06-18T19:51:58.645Z,124.92
2018-06-18T19:54:34.249Z,128.07
2018-06-18T19:57:05.269Z,127.30
2018-06-18T19:59:36.637Z,124.87
2018-06-18T20:02:07.913Z,122.72
2018-06-18T20:04:39.723Z,127.50
2018-06-18T20:07:11.997Z,124.33
2018-06-18T20:09:45.118Z,123.78
2018-06-18T20:12:16.139Z,131.32
2018-06-18T20:14:47.665Z,129.25
2018-06-18T20:17:18.935Z,129.72
2018-06-18T20:19:50.295Z,127.30
2018-06-18T20:22:21.313Z,124.55
2018-06-18T20:24:53.412Z,124.80
2018-06-18T20:27:24.486Z,127.53
2018-06-18T20:29:55.909Z,128.57
2018-06-18T20:32:26.810Z,158.37
2018-06-18T20:34:58.772Z,139.00
2018-06-18T20:37:29.771Z,132.10
2018-06-18T20:40:01.160Z,131.03
2018-06-18T20:42:32.653Z,133.72
2018-06-18T20:45:03.668Z,133.25
2018-06-18T20:47:35.608Z,132.75
2018-06-18T20:50:09.233Z,137.82
2018-06-18T20:52:40.434Z,132.27
2018-06-18T20:55:12.071Z,134.45
2018-06-18T20:57:43.195Z,135.12
2018-06-18T21:00:14.295Z,127.22
2018-06-18T21:02:45.639Z,125.97
2018-06-18T21:05:16.853Z,125.53
2018-06-18T21:07:48.283Z,125.55
2018-06-18T21:10:19.854Z,133.40
2018-06-18T21:12:50.997Z,126.27
2018-06-18T21:15:22.436Z,127.32
2018-06-18T21:17:54.542Z,129.78
2018-06-18T21:20:28.339Z,129.10
2018-06-18T21:22:59.305Z,127.12
2018-06-18T21:25:30.669Z,124.47
2018-06-18T21:28:02.201Z,123.97
2018-06-18T21:30:33.673Z,129.47
2018-06-18T21:33:04.955Z,127.72
2018-06-18T21:35:36.085Z,125.42
2018-06-18T21:38:07.020Z,123.80
2018-06-18T21:40:38.113Z,125.90
2018-06-18T21:43:09.555Z,128.97
2018-06-18T21:45:40.870Z,128.97
2018-06-18T21:48:11.893Z,124.47
2018-06-18T21:50:43.339Z,126.45
2018-06-18T21:53:14.319Z,124.33
2018-06-18T21:55:45.545Z,120.92
2018-06-18T21:58:16.618Z,120.45
2018-06-18T22:00:50.473Z,122.85
2018-06-18T22:03:21.668Z,125.97
2018-06-18T22:05:53.006Z,122.25
2018-06-18T22:08:25.332Z,121.37
2018-06-18T22:10:56.835Z,120.00
2018-06-18T22:13:28.085Z,117.00
2018-06-18T22:15:59.446Z,121.62
2018-06-18T22:18:30.555Z,117.77
2018-06-18T22:21:01.940Z,119.80
2018-06-18T22:23:33.133Z,118.70
2018-06-18T22:26:04.248Z,117.60
2018-06-18T22:28:37.817Z,118.22
2018-06-18T22:31:08.957Z,121.80
2018-06-18T22:33:39.886Z,118.30
2018-06-18T22:36:11.249Z,118.15
2018-06-18T22:38:42.488Z,122.50
2018-06-18T22:41:14.317Z,117.82
2018-06-18T22:43:45.804Z,123.38
2018-06-18T22:46:17.231Z,121.42
2018-06-18T22:48:48.364Z,123.50
2018-06-18T22:51:19.569Z,123.38
2018-06-18T22:53:50.587Z,121.70
2018-06-18T22:56:22.018Z,120.40
2018-06-18T22:58:53.001Z,118.55
2018-06-18T23:01:24.016Z,119.95
2018-06-18T23:03:58.028Z,117.82
2018-06-18T23:06:30.769Z,119.10
2018-06-18T23:09:07.258Z,120.55
2018-06-18T23:11:38.449Z,120.70
2018-06-18T23:14:19.353Z,119.90
2018-06-18T23:16:50.421Z,124.02
2018-06-18T23:19:21.421Z,123.67
2018-06-18T23:21:52.626Z,123.72
2018-06-18T23:24:23.609Z,123.13
2018-06-18T23:26:54.879Z,124.82
2018-06-18T23:29:26.059Z,127.92
2018-06-18T23:31:57.500Z,119.57
2018-06-18T23:34:28.547Z,121.72
2018-06-18T23:36:59.548Z,120.13
2018-06-18T23:39:30.612Z,119.60
2018-06-18T23:42:01.806Z,123.07
2018-06-18T23:44:32.943Z,122.00
2018-06-18T23:47:04.160Z,121.28
2018-06-18T23:49:35.385Z,119.95
2018-06-18T23:52:06.642Z,116.15
2018-06-18T23:54:37.774Z,113.72
2018-06-18T23:57:09.149Z,118.95
2018-06-18T23:59:40.456Z,117.65
